PWSweather.com
Personal Weather Stations
Station Observations
SD92115WX
El Cerrito Stoneybluff, San Diego, CA 92115

El Cerrito StoneybluffSan Diego, CA 92115

Lat: 32.754096, Lon: -117.066705

Elevation: 420

Station Type: Davis Vantage Vue

http://stoneybluff.com

High Low Average
Temperature 61.9°F16.6°C 48.0°F8.9°C 53.8°F12.1°C
Dew Point 54.0°F12.2°C 43.0°F6.1°C 49.3°F9.6°C
Winds 11.2 mph 18.0 kmh Calm Calm 2.0 mph SW3.2 kmh SW
Wind Gusts 18.1 mph29.1 kmh -- 4.0 mph6.4 kmh
Humidity 96% 52% 86%
Pressure 30.11 in1019.6 mb 30.04 in1017.3 mb -
Precipitation 0.19 in4.8 mm - -
Hour Temp Dew Point Humidity Winds Wind Gusts Pressure Precip Precip Rate Daily Precip Total
12:04 AM 53.1°F11.7°C 50.7°F10.4°C 92% Calm Calm -- 30.06 in1017.9 mb 0.00 in0.0 mm 0.00 in0.0 mm 0.00 in0.0 mm
12:09 AM 53.1°F11.7°C 50.7°F10.4°C 92% 0.2 mph 0.3 kmh 2.0 mph3.2 kmh 30.06 in1017.9 mb 0.00 in0.0 mm 0.00 in0.0 mm 0.00 in0.0 mm
12:14 AM 53.2°F11.8°C 50.9°F10.5°C 92% 0.2 mph WSW0.3 kmh WSW 2.0 mph3.2 kmh 30.06 in1017.9 mb 0.00 in0.0 mm 0.00 in0.0 mm 0.00 in0.0 mm
12:19 AM 53.4°F11.9°C 51.1°F10.6°C 92% Calm Calm 2.0 mph3.2 kmh 30.06 in1017.9 mb 0.00 in0.0 mm 0.00 in0.0 mm 0.00 in0.0 mm
12:24 AM 53.4°F11.9°C 51.1°F10.6°C 92% Calm Calm -- 30.06 in1017.9 mb 0.00 in0.0 mm 0.00 in0.0 mm 0.00 in0.0 mm
12:29 AM 53.6°F12.0°C 51.3°F10.7°C 92% 1.6 mph W2.6 kmh W 4.3 mph6.9 kmh 30.06 in1017.9 mb 0.00 in0.0 mm 0.00 in0.0 mm 0.00 in0.0 mm
12:34 AM 53.8°F12.1°C 51.3°F10.7°C 91% 1.1 mph NW1.8 kmh NW 4.3 mph6.9 kmh 30.06 in1017.9 mb 0.00 in0.0 mm 0.00 in0.0 mm 0.00 in0.0 mm
12:39 AM 54.0°F12.2°C 51.4°F10.8°C 91% 1.6 mph WSW2.6 kmh WSW 4.3 mph6.9 kmh 30.06 in1017.9 mb 0.00 in0.0 mm 0.00 in0.0 mm 0.00 in0.0 mm
12:44 AM 54.0°F12.2°C 51.4°F10.8°C 91% 1.8 mph WNW2.9 kmh WNW 5.4 mph8.7 kmh 30.06 in1017.9 mb 0.00 in0.0 mm 0.00 in0.0 mm 0.00 in0.0 mm
12:49 AM 54.1°F12.3°C 51.3°F10.7°C 90% 3.1 mph W5.0 kmh W 6.3 mph10.1 kmh 30.06 in1017.9 mb 0.00 in0.0 mm 0.00 in0.0 mm 0.00 in0.0 mm
12:54 AM 54.1°F12.3°C 51.3°F10.7°C 90% 0.9 mph WNW1.4 kmh WNW 5.4 mph8.7 kmh 30.06 in1017.9 mb 0.00 in0.0 mm 0.00 in0.0 mm 0.00 in0.0 mm
12:59 AM 54.1°F12.3°C 51.3°F10.7°C 90% Calm Calm 3.1 mph5.0 kmh 30.06 in1017.9 mb 0.00 in0.0 mm 0.00 in0.0 mm 0.00 in0.0 mm
01:04 AM 54.0°F12.2°C 51.1°F10.6°C 90% 0.4 mph NW0.6 kmh NW 2.0 mph3.2 kmh 30.06 in1017.9 mb 0.00 in0.0 mm 0.00 in0.0 mm 0.00 in0.0 mm
01:09 AM 53.8°F12.1°C 50.9°F10.5°C 90% 0.2 mph NW0.3 kmh NW 1.1 mph1.8 kmh 30.06 in1017.9 mb 0.00 in0.0 mm 0.00 in0.0 mm 0.00 in0.0 mm
01:14 AM 53.6°F12.0°C 50.7°F10.4°C 90% Calm Calm 1.1 mph1.8 kmh 30.06 in1017.9 mb 0.00 in0.0 mm 0.00 in0.0 mm 0.00 in0.0 mm
01:19 AM 53.4°F11.9°C 50.5°F10.3°C 90% Calm Calm 1.1 mph1.8 kmh 30.06 in1017.9 mb 0.00 in0.0 mm 0.00 in0.0 mm 0.00 in0.0 mm
01:24 AM 53.2°F11.8°C 50.4°F10.2°C 90% 0.4 mph NW0.6 kmh NW 3.1 mph5.0 kmh 30.06 in1017.9 mb 0.00 in0.0 mm 0.00 in0.0 mm 0.00 in0.0 mm
01:29 AM 53.2°F11.8°C 50.4°F10.2°C 90% Calm Calm -- 30.06 in1017.9 mb 0.00 in0.0 mm 0.00 in0.0 mm 0.00 in0.0 mm
01:34 AM 53.1°F11.7°C 50.2°F10.1°C 90% Calm Calm -- 30.06 in1017.9 mb 0.00 in0.0 mm 0.00 in0.0 mm 0.00 in0.0 mm
01:39 AM 53.1°F11.7°C 50.2°F10.1°C 90% Calm Calm 1.1 mph1.8 kmh 30.06 in1017.9 mb 0.00 in0.0 mm 0.00 in0.0 mm 0.00 in0.0 mm
01:44 AM 53.1°F11.7°C 50.2°F10.1°C 90% Calm Calm 1.1 mph1.8 kmh 30.06 in1017.9 mb 0.00 in0.0 mm 0.00 in0.0 mm 0.00 in0.0 mm
01:49 AM 52.9°F11.6°C 50.0°F10.0°C 90% 0.2 mph SW0.3 kmh SW 1.1 mph1.8 kmh 30.06 in1017.9 mb 0.00 in0.0 mm 0.00 in0.0 mm 0.00 in0.0 mm
01:54 AM 52.7°F11.5°C 49.8°F9.9°C 90% Calm Calm 1.1 mph1.8 kmh 30.06 in1017.9 mb 0.00 in0.0 mm 0.00 in0.0 mm 0.00 in0.0 mm
01:59 AM 52.5°F11.4°C 49.6°F9.8°C 90% Calm Calm -- 30.06 in1017.9 mb 0.00 in0.0 mm 0.00 in0.0 mm 0.00 in0.0 mm
02:04 AM 52.3°F11.3°C 49.5°F9.7°C 90% Calm Calm -- 30.06 in1017.9 mb 0.00 in0.0 mm 0.00 in0.0 mm 0.00 in0.0 mm
02:09 AM 52.2°F11.2°C 49.3°F9.6°C 90% Calm Calm -- 30.06 in1017.9 mb 0.00 in0.0 mm 0.00 in0.0 mm 0.00 in0.0 mm
02:14 AM 52.0°F11.1°C 49.5°F9.7°C 91% 0.2 mph WSW0.3 kmh WSW 1.1 mph1.8 kmh 30.06 in1017.9 mb 0.00 in0.0 mm 0.00 in0.0 mm 0.00 in0.0 mm
02:19 AM 52.0°F11.1°C 49.5°F9.7°C 91% Calm Calm -- 30.06 in1017.9 mb 0.00 in0.0 mm 0.00 in0.0 mm 0.00 in0.0 mm
02:24 AM 51.8°F11.0°C 49.3°F9.6°C 91% Calm Calm -- 30.06 in1017.9 mb 0.00 in0.0 mm 0.00 in0.0 mm 0.00 in0.0 mm
02:29 AM 51.6°F10.9°C 49.1°F9.5°C 91% Calm Calm -- 30.06 in1017.9 mb 0.00 in0.0 mm 0.00 in0.0 mm 0.00 in0.0 mm
02:34 AM 51.4°F10.8°C 48.9°F9.4°C 91% Calm Calm -- 30.06 in1017.9 mb 0.00 in0.0 mm 0.00 in0.0 mm 0.00 in0.0 mm
02:39 AM 51.4°F10.8°C 48.9°F9.4°C 91% Calm Calm -- 30.06 in1017.9 mb 0.00 in0.0 mm 0.00 in0.0 mm 0.00 in0.0 mm
02:44 AM 51.3°F10.7°C 48.7°F9.3°C 91% Calm Calm -- 30.06 in1017.9 mb 0.00 in0.0 mm 0.00 in0.0 mm 0.00 in0.0 mm
02:49 AM 51.3°F10.7°C 48.7°F9.3°C 91% Calm Calm -- 30.07 in1018.3 mb 0.00 in0.0 mm 0.00 in0.0 mm 0.00 in0.0 mm
02:54 AM 51.4°F10.8°C 48.9°F9.4°C 91% Calm Calm -- 30.06 in1017.9 mb 0.00 in0.0 mm 0.00 in0.0 mm 0.00 in0.0 mm
02:59 AM 51.3°F10.7°C 48.7°F9.3°C 91% Calm Calm -- 30.07 in1018.3 mb 0.00 in0.0 mm 0.00 in0.0 mm 0.00 in0.0 mm
03:04 AM 51.1°F10.6°C 48.6°F9.2°C 91% Calm Calm -- 30.07 in1018.3 mb 0.00 in0.0 mm 0.00 in0.0 mm 0.00 in0.0 mm
03:09 AM 51.1°F10.6°C 48.6°F9.2°C 91% Calm Calm -- 30.07 in1018.3 mb 0.00 in0.0 mm 0.00 in0.0 mm 0.00 in0.0 mm
03:14 AM 50.9°F10.5°C 48.4°F9.1°C 91% Calm Calm -- 30.07 in1018.3 mb 0.00 in0.0 mm 0.00 in0.0 mm 0.00 in0.0 mm
03:19 AM 50.7°F10.4°C 48.2°F9.0°C 91% Calm Calm -- 30.07 in1018.3 mb 0.00 in0.0 mm 0.00 in0.0 mm 0.00 in0.0 mm
03:24 AM 50.5°F10.3°C 48.0°F8.9°C 91% Calm Calm -- 30.07 in1018.3 mb 0.00 in0.0 mm 0.00 in0.0 mm 0.00 in0.0 mm
03:29 AM 50.5°F10.3°C 48.0°F8.9°C 91% Calm Calm -- 30.07 in1018.3 mb 0.00 in0.0 mm 0.00 in0.0 mm 0.00 in0.0 mm
03:34 AM 50.5°F10.3°C 48.0°F8.9°C 91% Calm Calm -- 30.07 in1018.3 mb 0.00 in0.0 mm 0.00 in0.0 mm 0.00 in0.0 mm
03:39 AM 50.5°F10.3°C 48.0°F8.9°C 91% Calm Calm -- 30.07 in1018.3 mb 0.00 in0.0 mm 0.00 in0.0 mm 0.00 in0.0 mm
03:44 AM 50.5°F10.3°C 48.0°F8.9°C 91% Calm Calm -- 30.07 in1018.3 mb 0.00 in0.0 mm 0.00 in0.0 mm 0.00 in0.0 mm
03:49 AM 50.5°F10.3°C 48.0°F8.9°C 91% Calm Calm -- 30.08 in1018.6 mb 0.00 in0.0 mm 0.00 in0.0 mm 0.00 in0.0 mm
03:54 AM 50.5°F10.3°C 48.0°F8.9°C 91% Calm Calm -- 30.08 in1018.6 mb 0.00 in0.0 mm 0.00 in0.0 mm 0.00 in0.0 mm
03:59 AM 50.2°F10.1°C 47.7°F8.7°C 91% Calm Calm -- 30.08 in1018.6 mb 0.00 in0.0 mm 0.00 in0.0 mm 0.00 in0.0 mm
04:04 AM 50.0°F10.0°C 47.5°F8.6°C 91% Calm Calm -- 30.08 in1018.6 mb 0.00 in0.0 mm 0.00 in0.0 mm 0.00 in0.0 mm
04:09 AM 49.6°F9.8°C 47.1°F8.4°C 91% Calm Calm -- 30.08 in1018.6 mb 0.00 in0.0 mm 0.00 in0.0 mm 0.00 in0.0 mm
04:14 AM 49.6°F9.8°C 47.1°F8.4°C 91% Calm Calm -- 30.08 in1018.6 mb 0.00 in0.0 mm 0.00 in0.0 mm 0.00 in0.0 mm
04:19 AM 49.5°F9.7°C 47.3°F8.5°C 92% Calm Calm -- 30.09 in1019.0 mb 0.00 in0.0 mm 0.00 in0.0 mm 0.00 in0.0 mm
04:24 AM 49.6°F9.8°C 47.5°F8.6°C 92% Calm Calm -- 30.09 in1019.0 mb 0.00 in0.0 mm 0.00 in0.0 mm 0.00 in0.0 mm
04:29 AM 49.6°F9.8°C 47.5°F8.6°C 92% Calm Calm -- 30.09 in1019.0 mb 0.00 in0.0 mm 0.00 in0.0 mm 0.00 in0.0 mm
04:34 AM 49.6°F9.8°C 47.5°F8.6°C 92% Calm Calm -- 30.09 in1019.0 mb 0.00 in0.0 mm 0.00 in0.0 mm 0.00 in0.0 mm
04:39 AM 49.5°F9.7°C 47.3°F8.5°C 92% Calm Calm -- 30.09 in1019.0 mb 0.00 in0.0 mm 0.00 in0.0 mm 0.00 in0.0 mm
04:44 AM 49.3°F9.6°C 47.1°F8.4°C 92% Calm Calm -- 30.09 in1019.0 mb 0.00 in0.0 mm 0.00 in0.0 mm 0.00 in0.0 mm
04:49 AM 49.5°F9.7°C 47.5°F8.6°C 93% Calm Calm -- 30.09 in1019.0 mb 0.00 in0.0 mm 0.00 in0.0 mm 0.00 in0.0 mm
04:54 AM 49.5°F9.7°C 47.5°F8.6°C 93% Calm Calm -- 30.09 in1019.0 mb 0.00 in0.0 mm 0.00 in0.0 mm 0.00 in0.0 mm
04:59 AM 49.5°F9.7°C 47.5°F8.6°C 93% Calm Calm -- 30.09 in1019.0 mb 0.00 in0.0 mm 0.00 in0.0 mm 0.00 in0.0 mm
05:04 AM 49.3°F9.6°C 47.3°F8.5°C 93% Calm Calm -- 30.09 in1019.0 mb 0.00 in0.0 mm 0.00 in0.0 mm 0.00 in0.0 mm
05:09 AM 49.1°F9.5°C 47.1°F8.4°C 93% Calm Calm 1.1 mph1.8 kmh 30.09 in1019.0 mb 0.00 in0.0 mm 0.00 in0.0 mm 0.00 in0.0 mm
05:14 AM 48.7°F9.3°C 46.6°F8.1°C 92% Calm Calm -- 30.09 in1019.0 mb 0.00 in0.0 mm 0.00 in0.0 mm 0.00 in0.0 mm
05:19 AM 48.6°F9.2°C 46.6°F8.1°C 93% Calm Calm -- 30.09 in1019.0 mb 0.00 in0.0 mm 0.00 in0.0 mm 0.00 in0.0 mm
05:24 AM 48.6°F9.2°C 46.6°F8.1°C 93% Calm Calm -- 30.09 in1019.0 mb 0.00 in0.0 mm 0.00 in0.0 mm 0.00 in0.0 mm
05:29 AM 48.6°F9.2°C 46.6°F8.1°C 93% Calm Calm -- 30.09 in1019.0 mb 0.00 in0.0 mm 0.00 in0.0 mm 0.00 in0.0 mm
05:34 AM 48.4°F9.1°C 46.4°F8.0°C 93% Calm Calm -- 30.09 in1019.0 mb 0.00 in0.0 mm 0.00 in0.0 mm 0.00 in0.0 mm
05:39 AM 48.0°F8.9°C 46.0°F7.8°C 93% Calm Calm -- 30.08 in1018.6 mb 0.00 in0.0 mm 0.00 in0.0 mm 0.00 in0.0 mm
05:44 AM 48.0°F8.9°C 46.0°F7.8°C 93% Calm Calm -- 30.09 in1019.0 mb 0.00 in0.0 mm 0.00 in0.0 mm 0.00 in0.0 mm
05:49 AM 48.2°F9.0°C 46.6°F8.1°C 94% Calm Calm -- 30.09 in1019.0 mb 0.00 in0.0 mm 0.00 in0.0 mm 0.00 in0.0 mm
05:54 AM 48.0°F8.9°C 46.0°F7.8°C 93% Calm Calm -- 30.09 in1019.0 mb 0.00 in0.0 mm 0.00 in0.0 mm 0.00 in0.0 mm
05:59 AM 48.0°F8.9°C 46.4°F8.0°C 94% Calm Calm -- 30.09 in1019.0 mb 0.00 in0.0 mm 0.00 in0.0 mm 0.00 in0.0 mm
06:04 AM 48.4°F9.1°C 46.8°F8.2°C 94% Calm Calm -- 30.09 in1019.0 mb 0.00 in0.0 mm 0.00 in0.0 mm 0.00 in0.0 mm
06:09 AM 48.6°F9.2°C 46.9°F8.3°C 94% Calm Calm -- 30.09 in1019.0 mb 0.00 in0.0 mm 0.00 in0.0 mm 0.00 in0.0 mm
06:14 AM 48.6°F9.2°C 46.9°F8.3°C 94% Calm Calm -- 30.09 in1019.0 mb 0.00 in0.0 mm 0.00 in0.0 mm 0.00 in0.0 mm
06:19 AM 48.7°F9.3°C 47.1°F8.4°C 94% Calm Calm -- 30.09 in1019.0 mb 0.00 in0.0 mm 0.00 in0.0 mm 0.00 in0.0 mm
06:24 AM 48.7°F9.3°C 47.1°F8.4°C 94% Calm Calm -- 30.10 in1019.3 mb 0.00 in0.0 mm 0.00 in0.0 mm 0.00 in0.0 mm
06:29 AM 49.3°F9.6°C 47.8°F8.8°C 95% Calm Calm -- 30.10 in1019.3 mb 0.00 in0.0 mm 0.00 in0.0 mm 0.00 in0.0 mm
06:34 AM 49.6°F9.8°C 48.2°F9.0°C 95% Calm Calm -- 30.10 in1019.3 mb 0.00 in0.0 mm 0.00 in0.0 mm 0.00 in0.0 mm
06:39 AM 50.0°F10.0°C 48.6°F9.2°C 95% Calm Calm -- 30.10 in1019.3 mb 0.00 in0.0 mm 0.00 in0.0 mm 0.00 in0.0 mm
06:44 AM 50.4°F10.2°C 48.9°F9.4°C 95% Calm Calm -- 30.10 in1019.3 mb 0.00 in0.0 mm 0.00 in0.0 mm 0.00 in0.0 mm
06:49 AM 50.5°F10.3°C 49.1°F9.5°C 95% Calm Calm -- 30.10 in1019.3 mb 0.00 in0.0 mm 0.00 in0.0 mm 0.00 in0.0 mm
06:54 AM 50.9°F10.5°C 49.3°F9.6°C 94% Calm Calm -- 30.10 in1019.3 mb 0.00 in0.0 mm 0.00 in0.0 mm 0.00 in0.0 mm
06:59 AM 51.3°F10.7°C 49.6°F9.8°C 94% Calm Calm -- 30.10 in1019.3 mb 0.00 in0.0 mm 0.00 in0.0 mm 0.00 in0.0 mm
07:04 AM 51.4°F10.8°C 49.8°F9.9°C 94% Calm Calm -- 30.10 in1019.3 mb 0.00 in0.0 mm 0.00 in0.0 mm 0.00 in0.0 mm
07:09 AM 51.6°F10.9°C 50.0°F10.0°C 94% Calm Calm -- 30.10 in1019.3 mb 0.00 in0.0 mm 0.00 in0.0 mm 0.00 in0.0 mm
07:14 AM 51.8°F11.0°C 50.2°F10.1°C 94% Calm Calm -- 30.10 in1019.3 mb 0.00 in0.0 mm 0.00 in0.0 mm 0.00 in0.0 mm
07:19 AM 52.0°F11.1°C 50.4°F10.2°C 94% Calm Calm -- 30.10 in1019.3 mb 0.00 in0.0 mm 0.00 in0.0 mm 0.00 in0.0 mm
07:24 AM 51.8°F11.0°C 49.8°F9.9°C 93% Calm Calm 1.1 mph1.8 kmh 30.10 in1019.3 mb 0.00 in0.0 mm 0.00 in0.0 mm 0.00 in0.0 mm
07:29 AM 51.6°F10.9°C 49.5°F9.7°C 92% 0.4 mph SSW0.6 kmh SSW 2.0 mph3.2 kmh 30.10 in1019.3 mb 0.00 in0.0 mm 0.00 in0.0 mm 0.00 in0.0 mm
07:34 AM 52.0°F11.1°C 49.6°F9.8°C 92% Calm Calm 1.1 mph1.8 kmh 30.10 in1019.3 mb 0.00 in0.0 mm 0.00 in0.0 mm 0.00 in0.0 mm
07:39 AM 52.2°F11.2°C 49.3°F9.6°C 90% Calm Calm -- 30.10 in1019.3 mb 0.00 in0.0 mm 0.00 in0.0 mm 0.00 in0.0 mm
07:44 AM 52.5°F11.4°C 49.1°F9.5°C 88% Calm Calm 2.0 mph3.2 kmh 30.10 in1019.3 mb 0.00 in0.0 mm 0.00 in0.0 mm 0.00 in0.0 mm
07:49 AM 52.9°F11.6°C 48.7°F9.3°C 86% 0.7 mph SSW1.1 kmh SSW 2.0 mph3.2 kmh 30.10 in1019.3 mb 0.00 in0.0 mm 0.00 in0.0 mm 0.00 in0.0 mm
07:54 AM 53.6°F12.0°C 49.3°F9.6°C 85% 0.7 mph SE1.1 kmh SE 2.0 mph3.2 kmh 30.11 in1019.6 mb 0.00 in0.0 mm 0.00 in0.0 mm 0.00 in0.0 mm
07:59 AM 54.0°F12.2°C 48.9°F9.4°C 83% 0.4 mph SW0.6 kmh SW 2.0 mph3.2 kmh 30.11 in1019.6 mb 0.00 in0.0 mm 0.00 in0.0 mm 0.00 in0.0 mm
08:04 AM 54.7°F12.6°C 49.3°F9.6°C 82% Calm Calm 3.1 mph5.0 kmh 30.11 in1019.6 mb 0.00 in0.0 mm 0.00 in0.0 mm 0.00 in0.0 mm
08:09 AM 55.0°F12.8°C 49.3°F9.6°C 81% 0.7 mph S1.1 kmh S 2.0 mph3.2 kmh 30.11 in1019.6 mb 0.00 in0.0 mm 0.00 in0.0 mm 0.00 in0.0 mm
08:14 AM 55.4°F13.0°C 49.6°F9.8°C 81% Calm Calm 2.0 mph3.2 kmh 30.11 in1019.6 mb 0.00 in0.0 mm 0.00 in0.0 mm 0.00 in0.0 mm
08:19 AM 55.8°F13.2°C 49.6°F9.8°C 80% 0.9 mph S1.4 kmh S 2.0 mph3.2 kmh 30.11 in1019.6 mb 0.00 in0.0 mm 0.00 in0.0 mm 0.00 in0.0 mm
08:24 AM 55.9°F13.3°C 49.5°F9.7°C 79% 0.4 mph SSE0.6 kmh SSE 3.1 mph5.0 kmh 30.11 in1019.6 mb 0.00 in0.0 mm 0.00 in0.0 mm 0.00 in0.0 mm
08:29 AM 56.1°F13.4°C 49.3°F9.6°C 78% 0.7 mph S1.1 kmh S 3.1 mph5.0 kmh 30.11 in1019.6 mb 0.00 in0.0 mm 0.00 in0.0 mm 0.00 in0.0 mm
08:34 AM 56.3°F13.5°C 49.5°F9.7°C 78% 1.3 mph SSW2.1 kmh SSW 5.4 mph8.7 kmh 30.11 in1019.6 mb 0.00 in0.0 mm 0.00 in0.0 mm 0.00 in0.0 mm
08:39 AM 56.3°F13.5°C 49.5°F9.7°C 78% 3.4 mph SW5.5 kmh SW 5.4 mph8.7 kmh 30.10 in1019.3 mb 0.00 in0.0 mm 0.00 in0.0 mm 0.00 in0.0 mm
08:44 AM 56.7°F13.7°C 50.2°F10.1°C 79% Calm Calm 4.3 mph6.9 kmh 30.11 in1019.6 mb 0.00 in0.0 mm 0.00 in0.0 mm 0.00 in0.0 mm
08:49 AM 56.8°F13.8°C 49.6°F9.8°C 77% Calm Calm 3.1 mph5.0 kmh 30.11 in1019.6 mb 0.00 in0.0 mm 0.00 in0.0 mm 0.00 in0.0 mm
08:54 AM 57.0°F13.9°C 49.5°F9.7°C 76% 3.4 mph SSW5.5 kmh SSW 6.3 mph10.1 kmh 30.11 in1019.6 mb 0.00 in0.0 mm 0.00 in0.0 mm 0.00 in0.0 mm
08:59 AM 56.8°F13.8°C 49.6°F9.8°C 77% 1.6 mph SW2.6 kmh SW 5.4 mph8.7 kmh 30.11 in1019.6 mb 0.00 in0.0 mm 0.00 in0.0 mm 0.00 in0.0 mm
09:04 AM 56.8°F13.8°C 49.3°F9.6°C 76% 1.1 mph WNW1.8 kmh WNW 6.3 mph10.1 kmh 30.11 in1019.6 mb 0.00 in0.0 mm 0.00 in0.0 mm 0.00 in0.0 mm
09:09 AM 56.8°F13.8°C 49.3°F9.6°C 76% 0.9 mph WNW1.4 kmh WNW 3.1 mph5.0 kmh 30.11 in1019.6 mb 0.00 in0.0 mm 0.00 in0.0 mm 0.00 in0.0 mm
09:14 AM 56.8°F13.8°C 49.3°F9.6°C 76% 1.8 mph NNE2.9 kmh NNE 8.5 mph13.7 kmh 30.11 in1019.6 mb 0.00 in0.0 mm 0.00 in0.0 mm 0.00 in0.0 mm
09:19 AM 56.1°F13.4°C 49.3°F9.6°C 78% 2.0 mph W3.2 kmh W 6.3 mph10.1 kmh 30.11 in1019.6 mb 0.00 in0.0 mm 0.00 in0.0 mm 0.00 in0.0 mm
09:24 AM 55.8°F13.2°C 49.6°F9.8°C 80% 0.9 mph WNW1.4 kmh WNW 3.1 mph5.0 kmh 30.11 in1019.6 mb 0.00 in0.0 mm 0.00 in0.0 mm 0.00 in0.0 mm
09:29 AM 55.8°F13.2°C 50.0°F10.0°C 81% 0.4 mph NE0.6 kmh NE 3.1 mph5.0 kmh 30.11 in1019.6 mb 0.00 in0.0 mm 0.00 in0.0 mm 0.00 in0.0 mm
09:34 AM 55.6°F13.1°C 49.8°F9.9°C 81% 0.2 mph N0.3 kmh N 3.1 mph5.0 kmh 30.11 in1019.6 mb 0.00 in0.0 mm 0.00 in0.0 mm 0.00 in0.0 mm
09:39 AM 55.8°F13.2°C 50.0°F10.0°C 81% 0.2 mph E0.3 kmh E 2.0 mph3.2 kmh 30.11 in1019.6 mb 0.00 in0.0 mm 0.00 in0.0 mm 0.00 in0.0 mm
09:44 AM 55.9°F13.3°C 50.2°F10.1°C 81% Calm Calm 2.0 mph3.2 kmh 30.10 in1019.3 mb 0.00 in0.0 mm 0.00 in0.0 mm 0.00 in0.0 mm
09:49 AM 56.1°F13.4°C 50.0°F10.0°C 80% Calm Calm -- 30.11 in1019.6 mb 0.00 in0.0 mm 0.00 in0.0 mm 0.00 in0.0 mm
09:54 AM 56.3°F13.5°C 49.8°F9.9°C 79% Calm Calm 1.1 mph1.8 kmh 30.11 in1019.6 mb 0.00 in0.0 mm 0.00 in0.0 mm 0.00 in0.0 mm
09:59 AM 56.3°F13.5°C 49.8°F9.9°C 79% Calm Calm 1.1 mph1.8 kmh 30.11 in1019.6 mb 0.00 in0.0 mm 0.00 in0.0 mm 0.00 in0.0 mm
10:04 AM 56.5°F13.6°C 49.6°F9.8°C 78% 0.4 mph WSW0.6 kmh WSW 2.0 mph3.2 kmh 30.11 in1019.6 mb 0.00 in0.0 mm 0.00 in0.0 mm 0.00 in0.0 mm
10:09 AM 56.8°F13.8°C 50.0°F10.0°C 78% 0.2 mph WSW0.3 kmh WSW 1.1 mph1.8 kmh 30.11 in1019.6 mb 0.00 in0.0 mm 0.00 in0.0 mm 0.00 in0.0 mm
10:14 AM 57.4°F14.1°C 50.2°F10.1°C 77% 1.1 mph SW1.8 kmh SW 5.4 mph8.7 kmh 30.10 in1019.3 mb 0.00 in0.0 mm 0.00 in0.0 mm 0.00 in0.0 mm
10:19 AM 57.6°F14.2°C 49.6°F9.8°C 75% 0.9 mph NW1.4 kmh NW 6.3 mph10.1 kmh 30.10 in1019.3 mb 0.00 in0.0 mm 0.00 in0.0 mm 0.00 in0.0 mm
10:24 AM 58.3°F14.6°C 51.1°F10.6°C 77% Calm Calm -- 30.10 in1019.3 mb 0.00 in0.0 mm 0.00 in0.0 mm 0.00 in0.0 mm
10:29 AM 58.6°F14.8°C 50.7°F10.4°C 75% 1.3 mph S2.1 kmh S 5.4 mph8.7 kmh 30.10 in1019.3 mb 0.00 in0.0 mm 0.00 in0.0 mm 0.00 in0.0 mm
10:34 AM 58.8°F14.9°C 50.9°F10.5°C 75% 2.9 mph SW4.7 kmh SW 6.3 mph10.1 kmh 30.10 in1019.3 mb 0.00 in0.0 mm 0.00 in0.0 mm 0.00 in0.0 mm
10:39 AM 59.0°F15.0°C 50.0°F10.0°C 72% 4.9 mph SW7.9 kmh SW 7.4 mph11.9 kmh 30.10 in1019.3 mb 0.00 in0.0 mm 0.00 in0.0 mm 0.00 in0.0 mm
10:44 AM 58.8°F14.9°C 50.2°F10.1°C 73% 4.0 mph WSW6.4 kmh WSW 6.3 mph10.1 kmh 30.09 in1019.0 mb 0.00 in0.0 mm 0.00 in0.0 mm 0.00 in0.0 mm
10:49 AM 59.4°F15.2°C 50.4°F10.2°C 72% 2.9 mph S4.7 kmh S 9.6 mph15.4 kmh 30.09 in1019.0 mb 0.00 in0.0 mm 0.00 in0.0 mm 0.00 in0.0 mm
10:54 AM 59.7°F15.4°C 48.7°F9.3°C 67% 4.3 mph SSW6.9 kmh SSW 8.5 mph13.7 kmh 30.09 in1019.0 mb 0.00 in0.0 mm 0.00 in0.0 mm 0.00 in0.0 mm
10:59 AM 59.7°F15.4°C 48.4°F9.1°C 66% 6.0 mph SW9.7 kmh SW 8.5 mph13.7 kmh 30.09 in1019.0 mb 0.00 in0.0 mm 0.00 in0.0 mm 0.00 in0.0 mm
11:04 AM 60.1°F15.6°C 48.2°F9.0°C 65% 6.7 mph WSW10.8 kmh WSW 10.5 mph16.9 kmh 30.09 in1019.0 mb 0.00 in0.0 mm 0.00 in0.0 mm 0.00 in0.0 mm
11:09 AM 60.4°F15.8°C 48.2°F9.0°C 64% 6.5 mph SSW10.5 kmh SSW 11.6 mph18.7 kmh 30.09 in1019.0 mb 0.00 in0.0 mm 0.00 in0.0 mm 0.00 in0.0 mm
11:14 AM 60.1°F15.6°C 47.5°F8.6°C 63% 7.2 mph SW11.6 kmh SW 10.5 mph16.9 kmh 30.09 in1019.0 mb 0.00 in0.0 mm 0.00 in0.0 mm 0.00 in0.0 mm
11:19 AM 60.1°F15.6°C 47.5°F8.6°C 63% 7.2 mph SW11.6 kmh SW 10.5 mph16.9 kmh 30.09 in1019.0 mb 0.00 in0.0 mm 0.00 in0.0 mm 0.00 in0.0 mm
11:24 AM 60.1°F15.6°C 47.5°F8.6°C 63% 6.3 mph SW10.1 kmh SW 10.5 mph16.9 kmh 30.08 in1018.6 mb 0.00 in0.0 mm 0.00 in0.0 mm 0.00 in0.0 mm
11:29 AM 60.4°F15.8°C 47.3°F8.5°C 62% 4.5 mph S7.2 kmh S 11.6 mph18.7 kmh 30.08 in1018.6 mb 0.00 in0.0 mm 0.00 in0.0 mm 0.00 in0.0 mm
11:34 AM 60.8°F16.0°C 45.9°F7.7°C 58% 5.8 mph SW9.3 kmh SW 12.8 mph20.6 kmh 30.08 in1018.6 mb 0.00 in0.0 mm 0.00 in0.0 mm 0.00 in0.0 mm
11:39 AM 61.2°F16.2°C 45.3°F7.4°C 56% 4.3 mph SE6.9 kmh SE 9.6 mph15.4 kmh 30.08 in1018.6 mb 0.00 in0.0 mm 0.00 in0.0 mm 0.00 in0.0 mm
11:44 AM 61.2°F16.2°C 45.9°F7.7°C 57% 5.4 mph SW8.7 kmh SW 12.8 mph20.6 kmh 30.08 in1018.6 mb 0.00 in0.0 mm 0.00 in0.0 mm 0.00 in0.0 mm
11:49 AM 61.3°F16.3°C 44.6°F7.0°C 54% 6.5 mph SSW10.5 kmh SSW 12.8 mph20.6 kmh 30.07 in1018.3 mb 0.00 in0.0 mm 0.00 in0.0 mm 0.00 in0.0 mm
11:54 AM 60.8°F16.0°C 43.0°F6.1°C 52% 8.3 mph SSW13.4 kmh SSW 12.8 mph20.6 kmh 30.07 in1018.3 mb 0.00 in0.0 mm 0.00 in0.0 mm 0.00 in0.0 mm
11:59 AM 60.8°F16.0°C 45.0°F7.2°C 56% 5.4 mph W8.7 kmh W 11.6 mph18.7 kmh 30.07 in1018.3 mb 0.00 in0.0 mm 0.00 in0.0 mm 0.00 in0.0 mm
12:04 PM 61.0°F16.1°C 46.0°F7.8°C 58% 7.8 mph SW12.6 kmh SW 11.6 mph18.7 kmh 30.07 in1018.3 mb 0.00 in0.0 mm 0.00 in0.0 mm 0.00 in0.0 mm
12:09 PM 61.0°F16.1°C 46.6°F8.1°C 59% 6.5 mph SW10.5 kmh SW 11.6 mph18.7 kmh 30.07 in1018.3 mb 0.00 in0.0 mm 0.00 in0.0 mm 0.00 in0.0 mm
12:14 PM 61.9°F16.6°C 46.9°F8.3°C 58% 8.9 mph SW14.3 kmh SW 12.8 mph20.6 kmh 30.07 in1018.3 mb 0.00 in0.0 mm 0.00 in0.0 mm 0.00 in0.0 mm
12:19 PM 61.2°F16.2°C 46.8°F8.2°C 59% 5.1 mph SW8.2 kmh SW 13.9 mph22.4 kmh 30.07 in1018.3 mb 0.00 in0.0 mm 0.00 in0.0 mm 0.00 in0.0 mm
12:24 PM 60.6°F15.9°C 44.8°F7.1°C 56% 7.2 mph SSW11.6 kmh SSW 11.6 mph18.7 kmh 30.06 in1017.9 mb 0.00 in0.0 mm 0.00 in0.0 mm 0.00 in0.0 mm
12:29 PM 60.4°F15.8°C 44.2°F6.8°C 55% 7.8 mph SW12.6 kmh SW 12.8 mph20.6 kmh 30.06 in1017.9 mb 0.00 in0.0 mm 0.00 in0.0 mm 0.00 in0.0 mm
12:34 PM 60.4°F15.8°C 46.4°F8.0°C 60% 4.9 mph SW7.9 kmh SW 10.5 mph16.9 kmh 30.06 in1017.9 mb 0.00 in0.0 mm 0.00 in0.0 mm 0.00 in0.0 mm
12:39 PM 60.1°F15.6°C 46.9°F8.3°C 62% 4.5 mph SW7.2 kmh SW 11.6 mph18.7 kmh 30.06 in1017.9 mb 0.00 in0.0 mm 0.00 in0.0 mm 0.00 in0.0 mm
12:44 PM 60.1°F15.6°C 46.9°F8.3°C 62% 6.5 mph WSW10.5 kmh WSW 13.9 mph22.4 kmh 30.06 in1017.9 mb 0.00 in0.0 mm 0.00 in0.0 mm 0.00 in0.0 mm
12:49 PM 60.6°F15.9°C 48.0°F8.9°C 63% 6.0 mph SSW9.7 kmh SSW 11.6 mph18.7 kmh 30.06 in1017.9 mb 0.00 in0.0 mm 0.00 in0.0 mm 0.00 in0.0 mm
12:54 PM 61.5°F16.4°C 48.4°F9.1°C 62% 7.8 mph SW12.6 kmh SW 13.9 mph22.4 kmh 30.06 in1017.9 mb 0.00 in0.0 mm 0.00 in0.0 mm 0.00 in0.0 mm
12:59 PM 61.2°F16.2°C 46.8°F8.2°C 59% 8.7 mph W14.0 kmh W 17.0 mph27.4 kmh 30.06 in1017.9 mb 0.00 in0.0 mm 0.00 in0.0 mm 0.00 in0.0 mm
01:04 PM 61.0°F16.1°C 48.4°F9.1°C 63% 9.2 mph SW14.8 kmh SW 14.8 mph23.8 kmh 30.06 in1017.9 mb 0.00 in0.0 mm 0.00 in0.0 mm 0.00 in0.0 mm
01:09 PM 60.4°F15.8°C 48.2°F9.0°C 64% 8.7 mph SW14.0 kmh SW 17.0 mph27.4 kmh 30.06 in1017.9 mb 0.00 in0.0 mm 0.00 in0.0 mm 0.00 in0.0 mm
01:14 PM 60.4°F15.8°C 48.6°F9.2°C 65% 7.8 mph S12.6 kmh S 13.9 mph22.4 kmh 30.06 in1017.9 mb 0.00 in0.0 mm 0.00 in0.0 mm 0.00 in0.0 mm
01:19 PM 60.6°F15.9°C 49.6°F9.8°C 67% 6.5 mph S10.5 kmh S 14.8 mph23.8 kmh 30.05 in1017.6 mb 0.00 in0.0 mm 0.00 in0.0 mm 0.00 in0.0 mm
01:24 PM 60.3°F15.7°C 48.4°F9.1°C 65% 8.3 mph SW13.4 kmh SW 12.8 mph20.6 kmh 30.05 in1017.6 mb 0.00 in0.0 mm 0.00 in0.0 mm 0.00 in0.0 mm
01:29 PM 59.9°F15.5°C 48.6°F9.2°C 66% 8.9 mph SW14.3 kmh SW 14.8 mph23.8 kmh 30.05 in1017.6 mb 0.00 in0.0 mm 0.00 in0.0 mm 0.00 in0.0 mm
01:34 PM 60.1°F15.6°C 49.1°F9.5°C 67% 5.6 mph SW9.0 kmh SW 13.9 mph22.4 kmh 30.05 in1017.6 mb 0.00 in0.0 mm 0.00 in0.0 mm 0.00 in0.0 mm
01:39 PM 60.1°F15.6°C 48.2°F9.0°C 65% 5.8 mph WSW9.3 kmh WSW 15.9 mph25.6 kmh 30.05 in1017.6 mb 0.00 in0.0 mm 0.00 in0.0 mm 0.00 in0.0 mm
01:44 PM 59.5°F15.3°C 48.2°F9.0°C 66% 8.5 mph SW13.7 kmh SW 17.0 mph27.4 kmh 30.05 in1017.6 mb 0.00 in0.0 mm 0.00 in0.0 mm 0.00 in0.0 mm
01:49 PM 59.4°F15.2°C 48.4°F9.1°C 67% 8.5 mph SSW13.7 kmh SSW 14.8 mph23.8 kmh 30.05 in1017.6 mb 0.00 in0.0 mm 0.00 in0.0 mm 0.00 in0.0 mm
01:54 PM 59.2°F15.1°C 48.6°F9.2°C 68% 7.4 mph S11.9 kmh S 13.9 mph22.4 kmh 30.05 in1017.6 mb 0.00 in0.0 mm 0.00 in0.0 mm 0.00 in0.0 mm
01:59 PM 59.2°F15.1°C 49.1°F9.5°C 69% 8.3 mph SW13.4 kmh SW 13.9 mph22.4 kmh 30.05 in1017.6 mb 0.00 in0.0 mm 0.00 in0.0 mm 0.00 in0.0 mm
02:04 PM 58.8°F14.9°C 48.7°F9.3°C 69% 10.1 mph SW16.3 kmh SW 14.8 mph23.8 kmh 30.05 in1017.6 mb 0.00 in0.0 mm 0.00 in0.0 mm 0.00 in0.0 mm
02:09 PM 58.6°F14.8°C 49.3°F9.6°C 71% 8.1 mph SW13.0 kmh SW 12.8 mph20.6 kmh 30.05 in1017.6 mb 0.00 in0.0 mm 0.00 in0.0 mm 0.00 in0.0 mm
02:14 PM 58.3°F14.6°C 49.3°F9.6°C 72% 11.2 mph SW18.0 kmh SW 14.8 mph23.8 kmh 30.05 in1017.6 mb 0.00 in0.0 mm 0.00 in0.0 mm 0.00 in0.0 mm
02:19 PM 57.9°F14.4°C 48.9°F9.4°C 72% 9.2 mph SW14.8 kmh SW 14.8 mph23.8 kmh 30.05 in1017.6 mb 0.00 in0.0 mm 0.00 in0.0 mm 0.00 in0.0 mm
02:24 PM 57.9°F14.4°C 48.9°F9.4°C 72% 6.9 mph WSW11.1 kmh WSW 12.8 mph20.6 kmh 30.04 in1017.3 mb 0.00 in0.0 mm 0.00 in0.0 mm 0.00 in0.0 mm
02:29 PM 57.9°F14.4°C 49.3°F9.6°C 73% 7.6 mph WSW12.2 kmh WSW 18.1 mph29.1 kmh 30.05 in1017.6 mb 0.00 in0.0 mm 0.00 in0.0 mm 0.00 in0.0 mm
02:34 PM 57.6°F14.2°C 49.3°F9.6°C 74% 8.7 mph SW14.0 kmh SW 15.9 mph25.6 kmh 30.05 in1017.6 mb 0.00 in0.0 mm 0.00 in0.0 mm 0.00 in0.0 mm
02:39 PM 57.4°F14.1°C 49.8°F9.9°C 76% 7.8 mph WSW12.6 kmh WSW 13.9 mph22.4 kmh 30.05 in1017.6 mb 0.00 in0.0 mm 0.00 in0.0 mm 0.00 in0.0 mm
02:44 PM 57.0°F13.9°C 50.2°F10.1°C 78% 8.1 mph SW13.0 kmh SW 11.6 mph18.7 kmh 30.05 in1017.6 mb 0.00 in0.0 mm 0.00 in0.0 mm 0.00 in0.0 mm
02:49 PM 56.5°F13.6°C 50.4°F10.2°C 80% 6.3 mph SW10.1 kmh SW 11.6 mph18.7 kmh 30.06 in1017.9 mb 0.02 in0.5 mm 0.24 in6.1 mm 0.02 in0.5 mm
02:54 PM 55.8°F13.2°C 50.7°F10.4°C 83% 6.9 mph W11.1 kmh W 11.6 mph18.7 kmh 30.06 in1017.9 mb 0.03 in0.8 mm 0.12 in3.0 mm 0.03 in0.8 mm
02:59 PM 55.2°F12.9°C 51.1°F10.6°C 86% 4.5 mph WNW7.2 kmh WNW 11.6 mph18.7 kmh 30.06 in1017.9 mb 0.04 in1.0 mm 0.12 in3.0 mm 0.04 in1.0 mm
03:04 PM 54.5°F12.5°C 50.7°F10.4°C 87% 3.8 mph WNW6.1 kmh WNW 10.5 mph16.9 kmh 30.06 in1017.9 mb 0.05 in1.3 mm 0.01 in0.3 mm 0.05 in1.3 mm
03:09 PM 54.1°F12.3°C 50.9°F10.5°C 89% 4.0 mph W6.4 kmh W 9.6 mph15.4 kmh 30.06 in1017.9 mb 0.07 in1.8 mm 0.24 in6.1 mm 0.07 in1.8 mm
03:14 PM 54.0°F12.2°C 51.1°F10.6°C 90% 4.9 mph WSW7.9 kmh WSW 10.5 mph16.9 kmh 30.06 in1017.9 mb 0.10 in2.5 mm 0.36 in9.1 mm 0.10 in2.5 mm
03:19 PM 53.8°F12.1°C 51.3°F10.7°C 91% 2.2 mph SW3.5 kmh SW 7.4 mph11.9 kmh 30.06 in1017.9 mb 0.12 in3.0 mm 0.24 in6.1 mm 0.12 in3.0 mm
03:24 PM 53.6°F12.0°C 50.7°F10.4°C 90% 4.0 mph WSW6.4 kmh WSW 8.5 mph13.7 kmh 30.06 in1017.9 mb 0.18 in4.6 mm 0.72 in18.3 mm 0.18 in4.6 mm
03:29 PM 53.8°F12.1°C 51.4°F10.8°C 92% 3.1 mph SSW5.0 kmh SSW 6.3 mph10.1 kmh 30.06 in1017.9 mb 0.19 in4.8 mm 0.12 in3.0 mm 0.19 in4.8 mm
03:34 PM 53.8°F12.1°C 51.4°F10.8°C 92% 3.6 mph SW5.8 kmh SW 5.4 mph8.7 kmh 30.06 in1017.9 mb 0.19 in4.8 mm 0.00 in0.0 mm 0.19 in4.8 mm
03:39 PM 54.0°F12.2°C 51.6°F10.9°C 92% 4.0 mph WSW6.4 kmh WSW 7.4 mph11.9 kmh 30.06 in1017.9 mb 0.19 in4.8 mm 0.00 in0.0 mm 0.19 in4.8 mm
03:44 PM 54.0°F12.2°C 51.6°F10.9°C 92% 2.0 mph SW3.2 kmh SW 5.4 mph8.7 kmh 30.06 in1017.9 mb 0.19 in4.8 mm 0.00 in0.0 mm 0.19 in4.8 mm
03:49 PM 54.0°F12.2°C 51.6°F10.9°C 92% 1.6 mph WNW2.6 kmh WNW 4.3 mph6.9 kmh 30.06 in1017.9 mb 0.17 in4.3 mm 0.00 in0.0 mm 0.19 in4.8 mm
03:54 PM 54.1°F12.3°C 52.2°F11.2°C 93% 2.0 mph S3.2 kmh S 3.1 mph5.0 kmh 30.06 in1017.9 mb 0.16 in4.1 mm 0.00 in0.0 mm 0.19 in4.8 mm
03:59 PM 54.3°F12.4°C 52.0°F11.1°C 92% 2.9 mph WSW4.7 kmh WSW 4.3 mph6.9 kmh 30.06 in1017.9 mb 0.15 in3.8 mm 0.00 in0.0 mm 0.19 in4.8 mm
04:04 PM 54.7°F12.6°C 52.7°F11.5°C 93% 2.9 mph SSE4.7 kmh SSE 5.4 mph8.7 kmh 30.06 in1017.9 mb 0.14 in3.6 mm 0.00 in0.0 mm 0.19 in4.8 mm
04:09 PM 54.7°F12.6°C 52.7°F11.5°C 93% 1.8 mph S2.9 kmh S 4.3 mph6.9 kmh 30.05 in1017.6 mb 0.12 in3.0 mm 0.00 in0.0 mm 0.19 in4.8 mm
04:14 PM 54.7°F12.6°C 52.3°F11.3°C 92% 4.0 mph SW6.4 kmh SW 5.4 mph8.7 kmh 30.05 in1017.6 mb 0.09 in2.3 mm 0.00 in0.0 mm 0.19 in4.8 mm
04:19 PM 55.0°F12.8°C 53.1°F11.7°C 93% 2.5 mph S4.0 kmh S 5.4 mph8.7 kmh 30.05 in1017.6 mb 0.07 in1.8 mm 0.00 in0.0 mm 0.19 in4.8 mm
04:24 PM 55.2°F12.9°C 53.2°F11.8°C 93% 1.1 mph WSW1.8 kmh WSW 4.3 mph6.9 kmh 30.06 in1017.9 mb 0.01 in0.3 mm 0.00 in0.0 mm 0.19 in4.8 mm
04:29 PM 55.0°F12.8°C 52.7°F11.5°C 92% 2.2 mph SSW3.5 kmh SSW 4.3 mph6.9 kmh 30.05 in1017.6 mb 0.00 in0.0 mm 0.00 in0.0 mm 0.19 in4.8 mm
04:34 PM 55.0°F12.8°C 53.1°F11.7°C 93% 2.2 mph SW3.5 kmh SW 4.3 mph6.9 kmh 30.05 in1017.6 mb 0.00 in0.0 mm 0.00 in0.0 mm 0.19 in4.8 mm
04:39 PM 55.0°F12.8°C 52.7°F11.5°C 92% 2.5 mph SW4.0 kmh SW 5.4 mph8.7 kmh 30.05 in1017.6 mb 0.00 in0.0 mm 0.00 in0.0 mm 0.19 in4.8 mm
04:44 PM 55.0°F12.8°C 53.1°F11.7°C 93% 1.1 mph W1.8 kmh W 4.3 mph6.9 kmh 30.05 in1017.6 mb 0.00 in0.0 mm 0.00 in0.0 mm 0.19 in4.8 mm
04:49 PM 55.4°F13.0°C 53.8°F12.1°C 94% 0.4 mph WSW0.6 kmh WSW 3.1 mph5.0 kmh 30.05 in1017.6 mb 0.00 in0.0 mm 0.00 in0.0 mm 0.19 in4.8 mm
04:54 PM 55.8°F13.2°C 53.8°F12.1°C 93% 0.9 mph WSW1.4 kmh WSW 2.0 mph3.2 kmh 30.05 in1017.6 mb 0.00 in0.0 mm 0.00 in0.0 mm 0.19 in4.8 mm
04:59 PM 55.9°F13.3°C 54.0°F12.2°C 93% 1.6 mph SW2.6 kmh SW 3.1 mph5.0 kmh 30.05 in1017.6 mb 0.00 in0.0 mm 0.00 in0.0 mm 0.19 in4.8 mm
05:04 PM 55.9°F13.3°C 53.6°F12.0°C 92% 1.6 mph SW2.6 kmh SW 3.1 mph5.0 kmh 30.05 in1017.6 mb 0.00 in0.0 mm 0.00 in0.0 mm 0.19 in4.8 mm
05:09 PM 55.6°F13.1°C 53.2°F11.8°C 92% 0.4 mph SW0.6 kmh SW 4.3 mph6.9 kmh 30.05 in1017.6 mb 0.00 in0.0 mm 0.00 in0.0 mm 0.19 in4.8 mm
05:14 PM 55.6°F13.1°C 53.2°F11.8°C 92% Calm Calm -- 30.05 in1017.6 mb 0.00 in0.0 mm 0.00 in0.0 mm 0.19 in4.8 mm
05:19 PM 55.6°F13.1°C 53.2°F11.8°C 92% 0.2 mph SW0.3 kmh SW 3.1 mph5.0 kmh 30.05 in1017.6 mb 0.00 in0.0 mm 0.00 in0.0 mm 0.19 in4.8 mm
05:24 PM 55.6°F13.1°C 53.1°F11.7°C 91% 2.7 mph WNW4.3 kmh WNW 5.4 mph8.7 kmh 30.05 in1017.6 mb 0.00 in0.0 mm 0.00 in0.0 mm 0.19 in4.8 mm
05:29 PM 55.6°F13.1°C 53.1°F11.7°C 91% 0.9 mph SW1.4 kmh SW 5.4 mph8.7 kmh 30.05 in1017.6 mb 0.00 in0.0 mm 0.00 in0.0 mm 0.19 in4.8 mm
05:34 PM 55.6°F13.1°C 53.1°F11.7°C 91% Calm Calm 2.0 mph3.2 kmh 30.05 in1017.6 mb 0.00 in0.0 mm 0.00 in0.0 mm 0.19 in4.8 mm
05:39 PM 55.6°F13.1°C 53.1°F11.7°C 91% 0.4 mph SW0.6 kmh SW 2.0 mph3.2 kmh 30.05 in1017.6 mb 0.00 in0.0 mm 0.00 in0.0 mm 0.19 in4.8 mm
05:44 PM 55.6°F13.1°C 52.7°F11.5°C 90% 0.7 mph SW1.1 kmh SW 3.1 mph5.0 kmh 30.05 in1017.6 mb 0.00 in0.0 mm 0.00 in0.0 mm 0.19 in4.8 mm
05:49 PM 55.6°F13.1°C 52.7°F11.5°C 90% 0.4 mph WSW0.6 kmh WSW 3.1 mph5.0 kmh 30.05 in1017.6 mb 0.00 in0.0 mm 0.00 in0.0 mm 0.19 in4.8 mm
05:54 PM 55.6°F13.1°C 52.7°F11.5°C 90% 1.1 mph SSW1.8 kmh SSW 4.3 mph6.9 kmh 30.05 in1017.6 mb 0.00 in0.0 mm 0.00 in0.0 mm 0.19 in4.8 mm
05:59 PM 55.2°F12.9°C 52.0°F11.1°C 89% 0.9 mph WSW1.4 kmh WSW 3.1 mph5.0 kmh 30.06 in1017.9 mb 0.00 in0.0 mm 0.00 in0.0 mm 0.19 in4.8 mm
06:04 PM 55.0°F12.8°C 51.8°F11.0°C 89% Calm Calm 1.1 mph1.8 kmh 30.06 in1017.9 mb 0.00 in0.0 mm 0.00 in0.0 mm 0.19 in4.8 mm
06:09 PM 55.0°F12.8°C 51.8°F11.0°C 89% Calm Calm -- 30.06 in1017.9 mb 0.00 in0.0 mm 0.00 in0.0 mm 0.19 in4.8 mm
06:14 PM 54.9°F12.7°C 51.4°F10.8°C 88% 0.4 mph WNW0.6 kmh WNW 2.0 mph3.2 kmh 30.06 in1017.9 mb 0.00 in0.0 mm 0.00 in0.0 mm 0.19 in4.8 mm
06:19 PM 54.7°F12.6°C 51.3°F10.7°C 88% Calm Calm -- 30.06 in1017.9 mb 0.00 in0.0 mm 0.00 in0.0 mm 0.19 in4.8 mm
06:24 PM 54.5°F12.5°C 50.7°F10.4°C 87% 0.4 mph WNW0.6 kmh WNW 3.1 mph5.0 kmh 30.06 in1017.9 mb 0.00 in0.0 mm 0.00 in0.0 mm 0.19 in4.8 mm
06:29 PM 54.5°F12.5°C 51.1°F10.6°C 88% 0.7 mph SW1.1 kmh SW 3.1 mph5.0 kmh 30.06 in1017.9 mb 0.00 in0.0 mm 0.00 in0.0 mm 0.19 in4.8 mm
06:34 PM 54.5°F12.5°C 51.1°F10.6°C 88% 0.2 mph SW0.3 kmh SW 4.3 mph6.9 kmh 30.06 in1017.9 mb 0.00 in0.0 mm 0.00 in0.0 mm 0.19 in4.8 mm
06:39 PM 54.3°F12.4°C 50.9°F10.5°C 88% 0.7 mph W1.1 kmh W 3.1 mph5.0 kmh 30.06 in1017.9 mb 0.00 in0.0 mm 0.00 in0.0 mm 0.19 in4.8 mm
06:44 PM 54.3°F12.4°C 50.9°F10.5°C 88% 0.4 mph W0.6 kmh W 2.0 mph3.2 kmh 30.06 in1017.9 mb 0.00 in0.0 mm 0.00 in0.0 mm 0.19 in4.8 mm
06:49 PM 54.1°F12.3°C 50.9°F10.5°C 89% Calm Calm -- 30.06 in1017.9 mb 0.00 in0.0 mm 0.00 in0.0 mm 0.19 in4.8 mm
06:54 PM 54.0°F12.2°C 50.7°F10.4°C 89% Calm Calm -- 30.06 in1017.9 mb 0.00 in0.0 mm 0.00 in0.0 mm 0.19 in4.8 mm
06:59 PM 53.8°F12.1°C 50.5°F10.3°C 89% Calm Calm -- 30.06 in1017.9 mb 0.00 in0.0 mm 0.00 in0.0 mm 0.19 in4.8 mm
07:04 PM 53.8°F12.1°C 50.9°F10.5°C 90% Calm Calm 2.0 mph3.2 kmh 30.06 in1017.9 mb 0.00 in0.0 mm 0.00 in0.0 mm 0.19 in4.8 mm
07:09 PM 53.4°F11.9°C 50.5°F10.3°C 90% Calm Calm -- 30.06 in1017.9 mb 0.00 in0.0 mm 0.00 in0.0 mm 0.19 in4.8 mm
07:14 PM 53.1°F11.7°C 50.2°F10.1°C 90% Calm Calm -- 30.07 in1018.3 mb 0.00 in0.0 mm 0.00 in0.0 mm 0.19 in4.8 mm
07:19 PM 52.9°F11.6°C 50.0°F10.0°C 90% Calm Calm -- 30.07 in1018.3 mb 0.00 in0.0 mm 0.00 in0.0 mm 0.19 in4.8 mm
07:24 PM 52.9°F11.6°C 50.4°F10.2°C 91% Calm Calm -- 30.07 in1018.3 mb 0.00 in0.0 mm 0.00 in0.0 mm 0.19 in4.8 mm
07:29 PM 52.9°F11.6°C 50.4°F10.2°C 91% Calm Calm 1.1 mph1.8 kmh 30.08 in1018.6 mb 0.00 in0.0 mm 0.00 in0.0 mm 0.19 in4.8 mm
07:34 PM 52.9°F11.6°C 50.4°F10.2°C 91% Calm Calm -- 30.08 in1018.6 mb 0.00 in0.0 mm 0.00 in0.0 mm 0.19 in4.8 mm
07:39 PM 52.9°F11.6°C 50.4°F10.2°C 91% Calm Calm -- 30.08 in1018.6 mb 0.00 in0.0 mm 0.00 in0.0 mm 0.19 in4.8 mm
07:44 PM 52.9°F11.6°C 50.4°F10.2°C 91% Calm Calm 1.1 mph1.8 kmh 30.08 in1018.6 mb 0.00 in0.0 mm 0.00 in0.0 mm 0.19 in4.8 mm
07:49 PM 52.9°F11.6°C 50.4°F10.2°C 91% Calm Calm -- 30.08 in1018.6 mb 0.00 in0.0 mm 0.00 in0.0 mm 0.19 in4.8 mm
07:54 PM 52.5°F11.4°C 50.0°F10.0°C 91% Calm Calm -- 30.08 in1018.6 mb 0.00 in0.0 mm 0.00 in0.0 mm 0.19 in4.8 mm
07:59 PM 52.3°F11.3°C 49.8°F9.9°C 91% Calm Calm -- 30.08 in1018.6 mb 0.00 in0.0 mm 0.00 in0.0 mm 0.19 in4.8 mm
08:04 PM 52.2°F11.2°C 49.6°F9.8°C 91% Calm Calm -- 30.09 in1019.0 mb 0.00 in0.0 mm 0.00 in0.0 mm 0.19 in4.8 mm
08:09 PM 51.8°F11.0°C 49.3°F9.6°C 91% Calm Calm -- 30.09 in1019.0 mb 0.00 in0.0 mm 0.00 in0.0 mm 0.19 in4.8 mm
08:14 PM 51.6°F10.9°C 49.5°F9.7°C 92% Calm Calm -- 30.09 in1019.0 mb 0.00 in0.0 mm 0.00 in0.0 mm 0.19 in4.8 mm
08:19 PM 51.6°F10.9°C 49.5°F9.7°C 92% Calm Calm -- 30.09 in1019.0 mb 0.00 in0.0 mm 0.00 in0.0 mm 0.19 in4.8 mm
08:24 PM 51.6°F10.9°C 49.6°F9.8°C 93% Calm Calm -- 30.09 in1019.0 mb 0.00 in0.0 mm 0.00 in0.0 mm 0.19 in4.8 mm
08:29 PM 52.0°F11.1°C 50.0°F10.0°C 93% Calm Calm -- 30.09 in1019.0 mb 0.00 in0.0 mm 0.00 in0.0 mm 0.19 in4.8 mm
08:34 PM 52.0°F11.1°C 50.0°F10.0°C 93% Calm Calm -- 30.10 in1019.3 mb 0.00 in0.0 mm 0.00 in0.0 mm 0.19 in4.8 mm
08:39 PM 51.8°F11.0°C 49.8°F9.9°C 93% Calm Calm -- 30.10 in1019.3 mb 0.00 in0.0 mm 0.00 in0.0 mm 0.19 in4.8 mm
08:44 PM 51.8°F11.0°C 49.8°F9.9°C 93% Calm Calm -- 30.09 in1019.0 mb 0.00 in0.0 mm 0.00 in0.0 mm 0.19 in4.8 mm
08:49 PM 51.4°F10.8°C 49.3°F9.6°C 92% Calm Calm -- 30.10 in1019.3 mb 0.00 in0.0 mm 0.00 in0.0 mm 0.19 in4.8 mm
08:54 PM 51.4°F10.8°C 49.5°F9.7°C 93% Calm Calm -- 30.10 in1019.3 mb 0.00 in0.0 mm 0.00 in0.0 mm 0.19 in4.8 mm
08:59 PM 51.3°F10.7°C 49.3°F9.6°C 93% Calm Calm -- 30.10 in1019.3 mb 0.00 in0.0 mm 0.00 in0.0 mm 0.19 in4.8 mm
09:04 PM 51.3°F10.7°C 49.3°F9.6°C 93% Calm Calm -- 30.10 in1019.3 mb 0.00 in0.0 mm 0.00 in0.0 mm 0.19 in4.8 mm
09:09 PM 51.1°F10.6°C 49.1°F9.5°C 93% Calm Calm -- 30.10 in1019.3 mb 0.00 in0.0 mm 0.00 in0.0 mm 0.19 in4.8 mm
09:14 PM 51.1°F10.6°C 49.1°F9.5°C 93% Calm Calm -- 30.10 in1019.3 mb 0.00 in0.0 mm 0.00 in0.0 mm 0.19 in4.8 mm
09:19 PM 50.9°F10.5°C 48.9°F9.4°C 93% Calm Calm -- 30.10 in1019.3 mb 0.00 in0.0 mm 0.00 in0.0 mm 0.19 in4.8 mm
09:24 PM 50.7°F10.4°C 49.1°F9.5°C 94% Calm Calm -- 30.10 in1019.3 mb 0.00 in0.0 mm 0.00 in0.0 mm 0.19 in4.8 mm
09:29 PM 50.9°F10.5°C 49.3°F9.6°C 94% Calm Calm -- 30.10 in1019.3 mb 0.00 in0.0 mm 0.00 in0.0 mm 0.19 in4.8 mm
09:34 PM 50.9°F10.5°C 49.3°F9.6°C 94% Calm Calm -- 30.10 in1019.3 mb 0.00 in0.0 mm 0.00 in0.0 mm 0.19 in4.8 mm
09:39 PM 50.5°F10.3°C 48.6°F9.2°C 93% Calm Calm -- 30.10 in1019.3 mb 0.00 in0.0 mm 0.00 in0.0 mm 0.19 in4.8 mm
09:44 PM 50.5°F10.3°C 48.9°F9.4°C 94% Calm Calm -- 30.11 in1019.6 mb 0.00 in0.0 mm 0.00 in0.0 mm 0.19 in4.8 mm
09:49 PM 50.5°F10.3°C 48.9°F9.4°C 94% Calm Calm -- 30.11 in1019.6 mb 0.00 in0.0 mm 0.00 in0.0 mm 0.19 in4.8 mm
09:54 PM 50.4°F10.2°C 48.7°F9.3°C 94% Calm Calm -- 30.11 in1019.6 mb 0.00 in0.0 mm 0.00 in0.0 mm 0.19 in4.8 mm
09:59 PM 50.4°F10.2°C 48.7°F9.3°C 94% Calm Calm -- 30.11 in1019.6 mb 0.00 in0.0 mm 0.00 in0.0 mm 0.19 in4.8 mm
10:04 PM 50.2°F10.1°C 48.6°F9.2°C 94% Calm Calm -- 30.11 in1019.6 mb 0.00 in0.0 mm 0.00 in0.0 mm 0.19 in4.8 mm
10:09 PM 49.8°F9.9°C 48.2°F9.0°C 94% Calm Calm -- 30.11 in1019.6 mb 0.00 in0.0 mm 0.00 in0.0 mm 0.19 in4.8 mm
10:14 PM 49.8°F9.9°C 48.2°F9.0°C 94% Calm Calm -- 30.11 in1019.6 mb 0.00 in0.0 mm 0.00 in0.0 mm 0.19 in4.8 mm
10:19 PM 49.8°F9.9°C 48.2°F9.0°C 94% Calm Calm -- 30.11 in1019.6 mb 0.00 in0.0 mm 0.00 in0.0 mm 0.19 in4.8 mm
10:24 PM 49.6°F9.8°C 48.0°F8.9°C 94% Calm Calm -- 30.11 in1019.6 mb 0.00 in0.0 mm 0.00 in0.0 mm 0.19 in4.8 mm
10:29 PM 49.6°F9.8°C 48.0°F8.9°C 94% Calm Calm -- 30.10 in1019.3 mb 0.00 in0.0 mm 0.00 in0.0 mm 0.19 in4.8 mm
10:34 PM 49.3°F9.6°C 47.7°F8.7°C 94% Calm Calm -- 30.10 in1019.3 mb 0.00 in0.0 mm 0.00 in0.0 mm 0.19 in4.8 mm
10:39 PM 49.3°F9.6°C 47.8°F8.8°C 95% Calm Calm -- 30.10 in1019.3 mb 0.00 in0.0 mm 0.00 in0.0 mm 0.19 in4.8 mm
10:44 PM 49.3°F9.6°C 47.8°F8.8°C 95% Calm Calm -- 30.10 in1019.3 mb 0.00 in0.0 mm 0.00 in0.0 mm 0.19 in4.8 mm
10:49 PM 49.3°F9.6°C 47.7°F8.7°C 94% Calm Calm -- 30.10 in1019.3 mb 0.00 in0.0 mm 0.00 in0.0 mm 0.19 in4.8 mm
10:54 PM 49.1°F9.5°C 47.7°F8.7°C 95% Calm Calm -- 30.10 in1019.3 mb 0.00 in0.0 mm 0.00 in0.0 mm 0.19 in4.8 mm
10:59 PM 49.1°F9.5°C 47.7°F8.7°C 95% Calm Calm -- 30.10 in1019.3 mb 0.00 in0.0 mm 0.00 in0.0 mm 0.19 in4.8 mm
11:04 PM 49.1°F9.5°C 47.7°F8.7°C 95% Calm Calm -- 30.10 in1019.3 mb 0.00 in0.0 mm 0.00 in0.0 mm 0.19 in4.8 mm
11:09 PM 49.1°F9.5°C 47.7°F8.7°C 95% Calm Calm -- 30.10 in1019.3 mb 0.00 in0.0 mm 0.00 in0.0 mm 0.19 in4.8 mm
11:14 PM 49.1°F9.5°C 47.7°F8.7°C 95% Calm Calm -- 30.10 in1019.3 mb 0.00 in0.0 mm 0.00 in0.0 mm 0.19 in4.8 mm
11:19 PM 48.9°F9.4°C 47.5°F8.6°C 95% Calm Calm -- 30.10 in1019.3 mb 0.00 in0.0 mm 0.00 in0.0 mm 0.19 in4.8 mm
11:24 PM 48.7°F9.3°C 47.3°F8.5°C 95% Calm Calm -- 30.10 in1019.3 mb 0.00 in0.0 mm 0.00 in0.0 mm 0.19 in4.8 mm
11:29 PM 48.6°F9.2°C 47.1°F8.4°C 95% Calm Calm -- 30.10 in1019.3 mb 0.00 in0.0 mm 0.00 in0.0 mm 0.19 in4.8 mm
11:34 PM 48.4°F9.1°C 46.9°F8.3°C 95% Calm Calm -- 30.10 in1019.3 mb 0.00 in0.0 mm 0.00 in0.0 mm 0.19 in4.8 mm
11:39 PM 48.6°F9.2°C 47.1°F8.4°C 95% Calm Calm -- 30.11 in1019.6 mb 0.00 in0.0 mm 0.00 in0.0 mm 0.19 in4.8 mm
11:44 PM 48.7°F9.3°C 47.7°F8.7°C 96% Calm Calm -- 30.10 in1019.3 mb 0.00 in0.0 mm 0.00 in0.0 mm 0.19 in4.8 mm
11:49 PM 48.7°F9.3°C 47.3°F8.5°C 95% Calm Calm -- 30.11 in1019.6 mb 0.00 in0.0 mm 0.00 in0.0 mm 0.19 in4.8 mm
11:54 PM 48.9°F9.4°C 47.5°F8.6°C 95% Calm Calm -- 30.11 in1019.6 mb 0.00 in0.0 mm 0.00 in0.0 mm 0.19 in4.8 mm
11:59 PM 49.1°F9.5°C 48.0°F8.9°C 96% Calm Calm -- 30.11 in1019.6 mb 0.00 in0.0 mm 0.00 in0.0 mm 0.19 in4.8 mm